Hovedside
METAR-TAF:

METAR-TAF

Lufthavner :

Trollhättan-Vänersborg, Sverige

breddegrad: 58-19N, lengdegrad: 012-21E, høyde over havet: 41 m

Gjeldene værobservasjon

Denne rapporten ble laget for 13 minutter siden, klokken 08:50 UTC
Vind 10 kt fra Nordøst, skiftende mellom Nord og Øst-nordøst
Temperatur 6°C
Luftfuktighet 81%
Trykk 1040 hPa
Sikt 10 km eller mer

METAR: ESGT 180850Z AUTO 04010KT 360V060 9999 NCD 06/03 Q1040

Tid: 10:03 (09:03 UTC)


TAF: fraværende

Værobservasjoner og værvarsel for over 4000 flyplasser (METAR- og TAF-rapporter).

Tilgjengelige stasjoner er representert av de røde og gule prikkene på kartet.

Hold musepekeren over prikken for å se navnet på stasjonen.

Klikk så for å se værobservasjoner og -varsler.

For å forandre kartet kan du klikke på den grønne knappen med svart kryss for å zoome inn, på den grønne knappen med strek for å zoome ut, eller på de grønne pilene for å se tilstøtende kart.


METAR-TAF: